Terminal Aerodrome Forecast
Issued by NWS

Current Version | Previous Version | Graphics & Text | Print | Product List | Glossary On
Versions: 1 2 3 4 5 6 7 8 9 10 11 12 13 14 15 16 17 18 19 20 21 22 23 24 25 26 27 28 29 30 31
000
FTUS41 KILN 180400 AAB
TAFLUK
TAF AMD
KLUK 180434Z 1805/1824 00000KT P6SM OVC035
      TEMPO 1805/1808 5SM -SHRA OVC025
     FM181100 VRB03KT 2SM BR OVC015
     FM181400 23004KT 5SM HZ VCSH OVC028
     FM181900 29005KT P6SM OVC035=

USA.gov is the U.S. government's official web portal to all federal, state and local government web resources and services.